sensor_id;sensor_type;location;lat;lon;timestamp;pressure;altitude;pressure_sealevel;temperature
19102;BMP280;9683;49.028;12.064;2023-08-30T00:00:15;96511.53;;;16.18
19102;BMP280;9683;49.028;12.064;2023-08-30T00:02:42;96525.75;;;16.23
19102;BMP280;9683;49.028;12.064;2023-08-30T00:05:09;96515.03;;;16.18
19102;BMP280;9683;49.028;12.064;2023-08-30T00:07:36;96518.50;;;16.24
19102;BMP280;9683;49.028;12.064;2023-08-30T00:10:03;96518.25;;;16.20
19102;BMP280;9683;49.028;12.064;2023-08-30T00:12:29;96529.00;;;16.20
19102;BMP280;9683;49.028;12.064;2023-08-30T00:14:56;96527.38;;;16.19
19102;BMP280;9683;49.028;12.064;2023-08-30T00:17:25;96503.03;;;16.00
19102;BMP280;9683;49.028;12.064;2023-08-30T00:19:51;96475.00;;;15.73
19102;BMP280;9683;49.028;12.064;2023-08-30T00:22:21;96523.41;;;16.07
19102;BMP280;9683;49.028;12.064;2023-08-30T00:24:48;96526.38;;;16.05
19102;BMP280;9683;49.028;12.064;2023-08-30T00:27:15;96534.97;;;16.07
19102;BMP280;9683;49.028;12.064;2023-08-30T00:29:42;96534.41;;;16.05
19102;BMP280;9683;49.028;12.064;2023-08-30T00:32:08;96528.56;;;15.98
19102;BMP280;9683;49.028;12.064;2023-08-30T00:34:36;96539.78;;;16.05
19102;BMP280;9683;49.028;12.064;2023-08-30T00:37:03;96543.28;;;16.05
19102;BMP280;9683;49.028;12.064;2023-08-30T00:39:29;96533.38;;;16.01
19102;BMP280;9683;49.028;12.064;2023-08-30T00:41:56;96545.69;;;16.07
19102;BMP280;9683;49.028;12.064;2023-08-30T00:44:23;96548.91;;;16.09
19102;BMP280;9683;49.028;12.064;2023-08-30T00:46:50;96547.28;;;16.08
19102;BMP280;9683;49.028;12.064;2023-08-30T00:49:16;96543.28;;;16.05
19102;BMP280;9683;49.028;12.064;2023-08-30T00:51:44;96549.69;;;16.10
19102;BMP280;9683;49.028;12.064;2023-08-30T00:54:11;96536.59;;;16.03
19102;BMP280;9683;49.028;12.064;2023-08-30T00:56:38;96544.59;;;16.08
19102;BMP280;9683;49.028;12.064;2023-08-30T00:59:04;96508.19;;;15.87
19102;BMP280;9683;49.028;12.064;2023-08-30T01:01:31;96546.75;;;16.11
19102;BMP280;9683;49.028;12.064;2023-08-30T01:03:58;96550.50;;;16.10
19102;BMP280;9683;49.028;12.064;2023-08-30T01:06:26;96550.50;;;16.10
19102;BMP280;9683;49.028;12.064;2023-08-30T01:08:54;96544.31;;;16.15
19102;BMP280;9683;49.028;12.064;2023-08-30T01:11:26;96488.34;;;15.83
19102;BMP280;9683;49.028;12.064;2023-08-30T01:13:59;96546.97;;;16.20
19102;BMP280;9683;49.028;12.064;2023-08-30T01:16:26;96541.34;;;16.16
19102;BMP280;9683;49.028;12.064;2023-08-30T01:18:55;96556.34;;;16.22
19102;BMP280;9683;49.028;12.064;2023-08-30T01:21:30;96540.03;;;16.14
19102;BMP280;9683;49.028;12.064;2023-08-30T01:24:00;96549.91;;;16.23
19102;BMP280;9683;49.028;12.064;2023-08-30T01:26:38;96544.81;;;16.22
19102;BMP280;9683;49.028;12.064;2023-08-30T01:29:11;96546.41;;;16.23
19102;BMP280;9683;49.028;12.064;2023-08-30T01:31:40;96532.22;;;16.17
19102;BMP280;9683;49.028;12.064;2023-08-30T01:34:07;96550.19;;;16.22
19102;BMP280;9683;49.028;12.064;2023-08-30T01:36:35;96551.25;;;16.21
19102;BMP280;9683;49.028;12.064;2023-08-30T01:39:02;96548.06;;;16.19
19102;BMP280;9683;49.028;12.064;2023-08-30T01:41:30;96533.84;;;16.13
19102;BMP280;9683;49.028;12.064;2023-08-30T01:43:57;96546.97;;;16.20
19102;BMP280;9683;49.028;12.064;2023-08-30T01:46:26;96545.63;;;16.17
19102;BMP280;9683;49.028;12.064;2023-08-30T01:48:54;96550.47;;;16.20
19102;BMP280;9683;49.028;12.064;2023-08-30T01:51:21;96535.22;;;16.11
19102;BMP280;9683;49.028;12.064;2023-08-30T01:53:51;96549.94;;;16.18
19102;BMP280;9683;49.028;12.064;2023-08-30T01:56:18;96556.13;;;16.14
19102;BMP280;9683;49.028;12.064;2023-08-30T01:58:45;96549.13;;;16.13
19102;BMP280;9683;49.028;12.064;2023-08-30T02:01:11;96549.69;;;16.10
19102;BMP280;9683;49.028;12.064;2023-08-30T02:03:43;96558.00;;;16.13
19102;BMP280;9683;49.028;12.064;2023-08-30T02:06:14;96559.06;;;16.12
19102;BMP280;9683;49.028;12.064;2023-08-30T02:08:49;96543.28;;;16.05
19102;BMP280;9683;49.028;12.064;2023-08-30T02:11:22;96544.88;;;16.07
19102;BMP280;9683;49.028;12.064;2023-08-30T02:13:50;96539.00;;;15.99
19102;BMP280;9683;49.028;12.064;2023-08-30T02:16:18;96551.06;;;16.07
19102;BMP280;9683;49.028;12.064;2023-08-30T02:18:47;96549.72;;;16.04
19102;BMP280;9683;49.028;12.064;2023-08-30T02:21:13;96545.97;;;16.00
19102;BMP280;9683;49.028;12.064;2023-08-30T02:23:40;96533.94;;;15.98
19102;BMP280;9683;49.028;12.064;2023-08-30T02:26:07;96549.22;;;16.02
19102;BMP280;9683;49.028;12.064;2023-08-30T02:28:33;96545.16;;;16.00
19102;BMP280;9683;49.028;12.064;2023-08-30T02:31:00;96550.00;;;16.03
19102;BMP280;9683;49.028;12.064;2023-08-30T02:33:27;96541.41;;;16.01
19102;BMP280;9683;49.028;12.064;2023-08-30T02:35:55;96547.84;;;16.05
19102;BMP280;9683;49.028;12.064;2023-08-30T02:38:22;96545.41;;;16.03
19102;BMP280;9683;49.028;12.064;2023-08-30T02:40:48;96546.78;;;16.06
19102;BMP280;9683;49.028;12.064;2023-08-30T02:43:15;96549.22;;;16.02
19102;BMP280;9683;49.028;12.064;2023-08-30T02:45:41;96539.56;;;15.91
19102;BMP280;9683;49.028;12.064;2023-08-30T02:48:08;96536.88;;;15.91
19102;BMP280;9683;49.028;12.064;2023-08-30T02:50:34;96542.25;;;15.96
19102;BMP280;9683;49.028;12.064;2023-08-30T02:53:03;96546.28;;;15.99
19102;BMP280;9683;49.028;12.064;2023-08-30T02:55:30;96538.75;;;15.96
19102;BMP280;9683;49.028;12.064;2023-08-30T02:57:57;96536.63;;;15.93
19102;BMP280;9683;49.028;12.064;2023-08-30T03:00:24;96537.44;;;15.93
19102;BMP280;9683;49.028;12.064;2023-08-30T03:02:50;96543.31;;;15.95
19102;BMP280;9683;49.028;12.064;2023-08-30T03:05:17;96527.50;;;15.89
19102;BMP280;9683;49.028;12.064;2023-08-30T03:07:44;96536.06;;;15.96
19102;BMP280;9683;49.028;12.064;2023-08-30T03:10:12;96537.16;;;15.95
19102;BMP280;9683;49.028;12.064;2023-08-30T03:12:38;96539.03;;;15.94
19102;BMP280;9683;49.028;12.064;2023-08-30T03:15:05;96530.72;;;15.91
19102;BMP280;9683;49.028;12.064;2023-08-30T03:17:32;96537.69;;;15.92
19102;BMP280;9683;49.028;12.064;2023-08-30T03:19:59;96539.88;;;15.90
19102;BMP280;9683;49.028;12.064;2023-08-30T03:22:28;96531.56;;;15.86
19102;BMP280;9683;49.028;12.064;2023-08-30T03:24:55;96532.34;;;15.87
19102;BMP280;9683;49.028;12.064;2023-08-30T03:27:23;96528.88;;;15.86
19102;BMP280;9683;49.028;12.064;2023-08-30T03:29:50;96532.06;;;15.88
19102;BMP280;9683;49.028;12.064;2023-08-30T03:32:17;96526.97;;;15.87
19102;BMP280;9683;49.028;12.064;2023-08-30T03:34:44;96520.88;;;15.71
19102;BMP280;9683;49.028;12.064;2023-08-30T03:37:11;96525.97;;;15.73
19102;BMP280;9683;49.028;12.064;2023-08-30T03:39:38;96540.16;;;15.78
19102;BMP280;9683;49.028;12.064;2023-08-30T03:42:05;96540.97;;;15.79
19102;BMP280;9683;49.028;12.064;2023-08-30T03:44:33;96541.78;;;15.79
19102;BMP280;9683;49.028;12.064;2023-08-30T03:46:59;96538.31;;;15.74
19102;BMP280;9683;49.028;12.064;2023-08-30T03:49:26;96536.69;;;15.73
19102;BMP280;9683;49.028;12.064;2023-08-30T03:51:53;96540.72;;;15.70
19102;BMP280;9683;49.028;12.064;2023-08-30T03:54:19;96542.63;;;15.70
19102;BMP280;9683;49.028;12.064;2023-08-30T03:56:46;96542.88;;;15.68
19102;BMP280;9683;49.028;12.064;2023-08-30T03:59:12;96543.16;;;15.62
19102;BMP280;9683;49.028;12.064;2023-08-30T04:01:40;96555.50;;;15.68
19102;BMP280;9683;49.028;12.064;2023-08-30T04:04:06;96559.50;;;15.70
19102;BMP280;9683;49.028;12.064;2023-08-30T04:06:33;96556.03;;;15.70
19102;BMP280;9683;49.028;12.064;2023-08-30T04:08:59;96558.97;;;15.68
19102;BMP280;9683;49.028;12.064;2023-08-30T04:11:26;96551.19;;;15.72
19102;BMP280;9683;49.028;12.064;2023-08-30T04:13:52;96553.06;;;15.71
19102;BMP280;9683;49.028;12.064;2023-08-30T04:16:19;96544.50;;;15.69
19102;BMP280;9683;49.028;12.064;2023-08-30T04:18:47;96562.47;;;15.69
19102;BMP280;9683;49.028;12.064;2023-08-30T04:21:13;96549.06;;;15.64
19102;BMP280;9683;49.028;12.064;2023-08-30T04:23:40;96503.25;;;15.30
19102;BMP280;9683;49.028;12.064;2023-08-30T04:26:06;96551.75;;;15.64
19102;BMP280;9683;49.028;12.064;2023-08-30T04:28:33;96556.56;;;15.62
19102;BMP280;9683;49.028;12.064;2023-08-30T04:30:59;96553.38;;;15.59
19102;BMP280;9683;49.028;12.064;2023-08-30T04:33:26;96551.75;;;15.58
19102;BMP280;9683;49.028;12.064;2023-08-30T04:35:54;96545.59;;;15.58
19102;BMP280;9683;49.028;12.064;2023-08-30T04:38:21;96555.78;;;15.61
19102;BMP280;9683;49.028;12.064;2023-08-30T04:40:48;96550.44;;;15.61
19102;BMP280;9683;49.028;12.064;2023-08-30T04:43:14;96510.78;;;15.28
19102;BMP280;9683;49.028;12.064;2023-08-30T04:45:41;96549.88;;;15.54
19102;BMP280;9683;49.028;12.064;2023-08-30T04:48:07;96546.41;;;15.48
19102;BMP280;9683;49.028;12.064;2023-08-30T04:50:34;96549.91;;;15.44
19102;BMP280;9683;49.028;12.064;2023-08-30T04:53:02;96548.28;;;15.43
19102;BMP280;9683;49.028;12.064;2023-08-30T04:55:29;96552.84;;;15.37
19102;BMP280;9683;49.028;12.064;2023-08-30T04:57:55;96563.56;;;15.37
19102;BMP280;9683;49.028;12.064;2023-08-30T05:00:22;96562.50;;;15.33
19102;BMP280;9683;49.028;12.064;2023-08-30T05:02:49;96568.66;;;15.34
19102;BMP280;9683;49.028;12.064;2023-08-30T05:05:15;96565.44;;;15.37
19102;BMP280;9683;49.028;12.064;2023-08-30T05:07:42;96555.53;;;15.37
19102;BMP280;9683;49.028;12.064;2023-08-30T05:10:10;96557.13;;;15.43
19102;BMP280;9683;49.028;12.064;2023-08-30T05:12:37;96545.09;;;15.36
19102;BMP280;9683;49.028;12.064;2023-08-30T05:15:05;96555.78;;;15.46
19102;BMP280;9683;49.028;12.064;2023-08-30T05:17:31;96495.00;;;15.06
19102;BMP280;9683;49.028;12.064;2023-08-30T05:19:58;96553.66;;;15.38
19102;BMP280;9683;49.028;12.064;2023-08-30T05:22:24;96555.53;;;15.42
19102;BMP280;9683;49.028;12.064;2023-08-30T05:24:51;96563.00;;;15.45
19102;BMP280;9683;49.028;12.064;2023-08-30T05:27:19;96566.75;;;15.49
19102;BMP280;9683;49.028;12.064;2023-08-30T05:29:45;96561.72;;;15.53
19102;BMP280;9683;49.028;12.064;2023-08-30T05:32:12;96508.38;;;15.21
19102;BMP280;9683;49.028;12.064;2023-08-30T05:34:39;96504.06;;;15.25
19102;BMP280;9683;49.028;12.064;2023-08-30T05:37:05;96562.47;;;15.64
19102;BMP280;9683;49.028;12.064;2023-08-30T05:39:32;96566.78;;;15.65
19102;BMP280;9683;49.028;12.064;2023-08-30T05:41:58;96563.53;;;15.68
19102;BMP280;9683;49.028;12.064;2023-08-30T05:44:26;96565.16;;;15.69
19102;BMP280;9683;49.028;12.064;2023-08-30T05:46:53;96562.72;;;15.72
19102;BMP280;9683;49.028;12.064;2023-08-30T05:49:19;96570.22;;;15.75
19102;BMP280;9683;49.028;12.064;2023-08-30T05:51:46;96562.72;;;15.77
19102;BMP280;9683;49.028;12.064;2023-08-30T05:54:12;96558.16;;;15.78
19102;BMP280;9683;49.028;12.064;2023-08-30T05:56:39;96550.94;;;15.73
19102;BMP280;9683;49.028;12.064;2023-08-30T05:59:07;96560.53;;;15.79
19102;BMP280;9683;49.028;12.064;2023-08-30T06:01:35;96556.00;;;15.80
19102;BMP280;9683;49.028;12.064;2023-08-30T06:04:01;96568.34;;;15.76
19102;BMP280;9683;49.028;12.064;2023-08-30T06:06:29;96554.69;;;15.72
19102;BMP280;9683;49.028;12.064;2023-08-30T06:08:57;96563.53;;;15.78
19102;BMP280;9683;49.028;12.064;2023-08-30T06:11:24;96565.91;;;15.79
19102;BMP280;9683;49.028;12.064;2023-08-30T06:13:50;96577.19;;;15.81
19102;BMP280;9683;49.028;12.064;2023-08-30T06:16:17;96559.75;;;15.79
19102;BMP280;9683;49.028;12.064;2023-08-30T06:18:44;96567.22;;;15.87
19102;BMP280;9683;49.028;12.064;2023-08-30T06:21:11;96574.50;;;15.86
19102;BMP280;9683;49.028;12.064;2023-08-30T06:23:38;96573.13;;;15.89
19102;BMP280;9683;49.028;12.064;2023-08-30T06:26:04;96578.25;;;15.90
19102;BMP280;9683;49.028;12.064;2023-08-30T06:28:31;96571.25;;;15.94
19102;BMP280;9683;49.028;12.064;2023-08-30T06:30:58;96563.16;;;15.99
19102;BMP280;9683;49.028;12.064;2023-08-30T06:33:24;96561.25;;;16.05
19102;BMP280;9683;49.028;12.064;2023-08-30T06:35:52;96569.84;;;16.07
19102;BMP280;9683;49.028;12.064;2023-08-30T06:38:20;96564.75;;;16.05
19102;BMP280;9683;49.028;12.064;2023-08-30T06:40:47;96569.31;;;16.05
19102;BMP280;9683;49.028;12.064;2023-08-30T06:43:14;96564.22;;;16.03
19102;BMP280;9683;49.028;12.064;2023-08-30T06:45:41;96564.50;;;16.02
19102;BMP280;9683;49.028;12.064;2023-08-30T06:48:07;96568.00;;;16.02
19102;BMP280;9683;49.028;12.064;2023-08-30T06:50:34;96567.69;;;16.04
19102;BMP280;9683;49.028;12.064;2023-08-30T06:53:02;96575.75;;;16.09
19102;BMP280;9683;49.028;12.064;2023-08-30T06:55:29;96577.34;;;16.10
19102;BMP280;9683;49.028;12.064;2023-08-30T06:57:55;96569.84;;;16.07
19102;BMP280;9683;49.028;12.064;2023-08-30T07:00:22;96574.41;;;16.12
19102;BMP280;9683;49.028;12.064;2023-08-30T07:02:48;96573.84;;;16.10
19102;BMP280;9683;49.028;12.064;2023-08-30T07:05:15;96573.06;;;16.09
19102;BMP280;9683;49.028;12.064;2023-08-30T07:07:41;96572.50;;;16.12
19102;BMP280;9683;49.028;12.064;2023-08-30T07:10:09;96563.66;;;16.12
19102;BMP280;9683;49.028;12.064;2023-08-30T07:12:36;96570.03;;;16.21
19102;BMP280;9683;49.028;12.064;2023-08-30T07:15:03;96563.34;;;16.23
19102;BMP280;9683;49.028;12.064;2023-08-30T07:17:30;96574.56;;;16.30
19102;BMP280;9683;49.028;12.064;2023-08-30T07:19:56;96571.88;;;16.35
19102;BMP280;9683;49.028;12.064;2023-08-30T07:22:23;96576.91;;;16.42
19102;BMP280;9683;49.028;12.064;2023-08-30T07:24:49;96572.34;;;16.47
19102;BMP280;9683;49.028;12.064;2023-08-30T07:27:17;96566.38;;;16.56
19102;BMP280;9683;49.028;12.064;2023-08-30T07:29:44;96565.31;;;16.62
19102;BMP280;9683;49.028;12.064;2023-08-30T07:32:10;96560.94;;;16.71
19102;BMP280;9683;49.028;12.064;2023-08-30T07:34:37;96558.75;;;16.78
19102;BMP280;9683;49.028;12.064;2023-08-30T07:37:03;96563.25;;;16.87
19102;BMP280;9683;49.028;12.064;2023-08-30T07:39:30;96562.94;;;16.89
19102;BMP280;9683;49.028;12.064;2023-08-30T07:41:56;96558.41;;;16.84
19102;BMP280;9683;49.028;12.064;2023-08-30T07:44:24;96564.03;;;16.88
19102;BMP280;9683;49.028;12.064;2023-08-30T07:46:51;96567.75;;;16.92
19102;BMP280;9683;49.028;12.064;2023-08-30T07:49:18;96562.91;;;16.94
19102;BMP280;9683;49.028;12.064;2023-08-30T07:51:44;96565.00;;;17.02
19102;BMP280;9683;49.028;12.064;2023-08-30T07:54:11;96557.97;;;17.06
19102;BMP280;9683;49.028;12.064;2023-08-30T07:56:38;96559.56;;;17.12
19102;BMP280;9683;49.028;12.064;2023-08-30T07:59:04;96561.66;;;17.15
19102;BMP280;9683;49.028;12.064;2023-08-30T08:01:32;96565.94;;;17.21
19102;BMP280;9683;49.028;12.064;2023-08-30T08:03:59;96554.38;;;17.21
19102;BMP280;9683;49.028;12.064;2023-08-30T08:06:25;96555.44;;;17.20
19102;BMP280;9683;49.028;12.064;2023-08-30T08:08:52;96557.06;;;17.21
19102;BMP280;9683;49.028;12.064;2023-08-30T08:11:18;96557.28;;;17.24
19102;BMP280;9683;49.028;12.064;2023-08-30T08:13:44;96564.28;;;17.25
19102;BMP280;9683;49.028;12.064;2023-08-30T08:16:11;96553.75;;;17.29
19102;BMP280;9683;49.028;12.064;2023-08-30T08:18:39;96558.84;;;17.30
19102;BMP280;9683;49.028;12.064;2023-08-30T08:21:06;96562.84;;;17.33
19102;BMP280;9683;49.028;12.064;2023-08-30T08:23:32;96562.56;;;17.34
19102;BMP280;9683;49.028;12.064;2023-08-30T08:25:59;96559.56;;;17.41
19102;BMP280;9683;49.028;12.064;2023-08-30T08:28:26;96556.34;;;17.39
19102;BMP280;9683;49.028;12.064;2023-08-30T08:30:52;96564.88;;;17.46
19102;BMP280;9683;49.028;12.064;2023-08-30T08:33:19;96561.84;;;17.53
19102;BMP280;9683;49.028;12.064;2023-08-30T08:35:50;96567.72;;;17.60
19102;BMP280;9683;49.028;12.064;2023-08-30T08:38:16;96565.28;;;17.63
19102;BMP280;9683;49.028;12.064;2023-08-30T08:40:43;96552.91;;;17.62
19102;BMP280;9683;49.028;12.064;2023-08-30T08:43:10;96564.34;;;17.73
19102;BMP280;9683;49.028;12.064;2023-08-30T08:45:37;96555.97;;;17.79
19102;BMP280;9683;49.028;12.064;2023-08-30T08:48:03;96541.66;;;17.84
19102;BMP280;9683;49.028;12.064;2023-08-30T08:50:31;96538.00;;;17.94
19102;BMP280;9683;49.028;12.064;2023-08-30T08:52:59;96544.09;;;18.04
19102;BMP280;9683;49.028;12.064;2023-08-30T08:55:26;96532.78;;;18.02
19102;BMP280;9683;49.028;12.064;2023-08-30T08:57:55;96545.28;;;18.17
19102;BMP280;9683;49.028;12.064;2023-08-30T09:00:22;96533.16;;;18.14
19102;BMP280;9683;49.028;12.064;2023-08-30T09:02:49;96550.88;;;18.20
19102;BMP280;9683;49.028;12.064;2023-08-30T09:05:17;96541.19;;;18.19
19102;BMP280;9683;49.028;12.064;2023-08-30T09:07:44;96558.97;;;18.20
19102;BMP280;9683;49.028;12.064;2023-08-30T09:10:12;96548.47;;;18.19
19102;BMP280;9683;49.028;12.064;2023-08-30T09:12:39;96547.38;;;18.20
19102;BMP280;9683;49.028;12.064;2023-08-30T09:15:06;96546.78;;;18.23
19102;BMP280;9683;49.028;12.064;2023-08-30T09:17:36;96548.84;;;18.31
19102;BMP280;9683;49.028;12.064;2023-08-30T09:20:07;96543.59;;;18.40
19102;BMP280;9683;49.028;12.064;2023-08-30T09:22:38;96545.09;;;18.51
19102;BMP280;9683;49.028;12.064;2023-08-30T09:25:06;96546.94;;;18.55
19102;BMP280;9683;49.028;12.064;2023-08-30T09:27:34;96536.88;;;18.61
19102;BMP280;9683;49.028;12.064;2023-08-30T09:30:01;96545.25;;;18.59
19102;BMP280;9683;49.028;12.064;2023-08-30T09:32:27;96546.94;;;18.55
19102;BMP280;9683;49.028;12.064;2023-08-30T09:34:54;96537.88;;;18.46
19102;BMP280;9683;49.028;12.064;2023-08-30T09:37:21;96539.69;;;18.51
19102;BMP280;9683;49.028;12.064;2023-08-30T09:39:50;96544.81;;;18.52
19102;BMP280;9683;49.028;12.064;2023-08-30T09:42:17;96539.19;;;18.49
19102;BMP280;9683;49.028;12.064;2023-08-30T09:44:45;96539.69;;;18.51
19102;BMP280;9683;49.028;12.064;2023-08-30T09:47:13;96544.56;;;18.49
19102;BMP280;9683;49.028;12.064;2023-08-30T09:49:43;96541.56;;;18.55
19102;BMP280;9683;49.028;12.064;2023-08-30T09:52:12;96533.47;;;18.55
19102;BMP280;9683;49.028;12.064;2023-08-30T09:54:42;96530.97;;;18.59
19102;BMP280;9683;49.028;12.064;2023-08-30T09:57:09;96530.91;;;18.64
19102;BMP280;9683;49.028;12.064;2023-08-30T09:59:36;96527.25;;;18.73
19102;BMP280;9683;49.028;12.064;2023-08-30T10:02:05;96525.81;;;18.81
19102;BMP280;9683;49.028;12.064;2023-08-30T10:04:32;96527.91;;;18.84
19102;BMP280;9683;49.028;12.064;2023-08-30T10:07:01;96531.34;;;18.90
19102;BMP280;9683;49.028;12.064;2023-08-30T10:09:29;96515.34;;;18.93
19102;BMP280;9683;49.028;12.064;2023-08-30T10:11:57;96517.59;;;19.05
19102;BMP280;9683;49.028;12.064;2023-08-30T10:14:26;96494.13;;;19.05
19102;BMP280;9683;49.028;12.064;2023-08-30T10:16:58;96518.22;;;19.29
19102;BMP280;9683;49.028;12.064;2023-08-30T10:19:29;96517.56;;;19.37
19102;BMP280;9683;49.028;12.064;2023-08-30T10:22:00;96518.78;;;19.45
19102;BMP280;9683;49.028;12.064;2023-08-30T10:24:29;96490.38;;;19.34
19102;BMP280;9683;49.028;12.064;2023-08-30T10:26:58;96518.22;;;19.48
19102;BMP280;9683;49.028;12.064;2023-08-30T10:29:27;96517.69;;;19.46
19102;BMP280;9683;49.028;12.064;2023-08-30T10:31:54;96514.25;;;19.40
19102;BMP280;9683;49.028;12.064;2023-08-30T10:34:21;96512.94;;;19.38
19102;BMP280;9683;49.028;12.064;2023-08-30T10:36:58;96517.47;;;19.42
19102;BMP280;9683;49.028;12.064;2023-08-30T10:39:33;96515.06;;;19.41
19102;BMP280;9683;49.028;12.064;2023-08-30T10:41:59;96510.25;;;19.38
19102;BMP280;9683;49.028;12.064;2023-08-30T10:44:26;96506.47;;;19.39
19102;BMP280;9683;49.028;12.064;2023-08-30T10:46:53;96502.44;;;19.36
19102;BMP280;9683;49.028;12.064;2023-08-30T10:49:20;96502.97;;;19.38
19102;BMP280;9683;49.028;12.064;2023-08-30T10:52:00;96498.50;;;19.47
19102;BMP280;9683;49.028;12.064;2023-08-30T10:55:04;96506.81;;;19.51
19102;BMP280;9683;49.028;12.064;2023-08-30T10:57:41;96511.91;;;19.52
19102;BMP280;9683;49.028;12.064;2023-08-30T11:00:21;96495.00;;;19.47
19102;BMP280;9683;49.028;12.064;2023-08-30T11:02:56;96499.00;;;19.49
19102;BMP280;9683;49.028;12.064;2023-08-30T11:05:40;96507.09;;;19.49
19102;BMP280;9683;49.028;12.064;2023-08-30T11:08:26;96518.09;;;19.53
19102;BMP280;9683;49.028;12.064;2023-08-30T11:11:18;96506.53;;;19.52
19102;BMP280;9683;49.028;12.064;2023-08-30T11:17:50;96501.09;;;19.66
19102;BMP280;9683;49.028;12.064;2023-08-30T11:20:34;96503.50;;;19.67
19102;BMP280;9683;49.028;12.064;2023-08-30T11:23:05;96504.59;;;19.66
19102;BMP280;9683;49.028;12.064;2023-08-30T11:25:32;96460.78;;;19.42
19102;BMP280;9683;49.028;12.064;2023-08-30T11:28:05;96458.22;;;19.51
19102;BMP280;9683;49.028;12.064;2023-08-30T11:30:40;96486.03;;;19.65
19102;BMP280;9683;49.028;12.064;2023-08-30T11:33:24;96478.41;;;19.53
19102;BMP280;9683;49.028;12.064;2023-08-30T11:36:00;96484.41;;;19.64
19102;BMP280;9683;49.028;12.064;2023-08-30T11:38:28;96496.59;;;19.61
19102;BMP280;9683;49.028;12.064;2023-08-30T11:41:18;96496.72;;;19.56
19102;BMP280;9683;49.028;12.064;2023-08-30T11:43:54;96490.81;;;19.54
19102;BMP280;9683;49.028;12.064;2023-08-30T11:46:30;96481.00;;;19.45
19102;BMP280;9683;49.028;12.064;2023-08-30T11:49:34;96493.03;;;19.52
19102;BMP280;9683;49.028;12.064;2023-08-30T11:52:20;96486.81;;;19.52
19102;BMP280;9683;49.028;12.064;2023-08-30T11:54:54;96486.00;;;19.51
19102;BMP280;9683;49.028;12.064;2023-08-30T11:57:34;96488.19;;;19.49
19102;BMP280;9683;49.028;12.064;2023-08-30T12:00:11;96499.13;;;19.44
19102;BMP280;9683;49.028;12.064;2023-08-30T12:02:57;96503.16;;;19.42
19102;BMP280;9683;49.028;12.064;2023-08-30T12:05:49;96496.28;;;19.36
19102;BMP280;9683;49.028;12.064;2023-08-30T12:08:31;96510.06;;;19.34
19102;BMP280;9683;49.028;12.064;2023-08-30T12:10:57;96506.56;;;19.34
19102;BMP280;9683;49.028;12.064;2023-08-30T12:13:25;96503.06;;;19.33
19102;BMP280;9683;49.028;12.064;2023-08-30T12:15:53;96504.66;;;19.34
19102;BMP280;9683;49.028;12.064;2023-08-30T12:18:21;96498.25;;;19.30
19102;BMP280;9683;49.028;12.064;2023-08-30T12:20:52;96518.16;;;19.34
19102;BMP280;9683;49.028;12.064;2023-08-30T12:23:20;96511.03;;;19.24
19102;BMP280;9683;49.028;12.064;2023-08-30T12:25:56;96513.13;;;19.14
19102;BMP280;9683;49.028;12.064;2023-08-30T12:28:23;96508.09;;;19.07
19102;BMP280;9683;49.028;12.064;2023-08-30T12:30:50;96505.72;;;19.06
19102;BMP280;9683;49.028;12.064;2023-08-30T12:33:18;96501.31;;;19.10
19102;BMP280;9683;49.028;12.064;2023-08-30T12:35:44;96493.03;;;19.06
19102;BMP280;9683;49.028;12.064;2023-08-30T12:38:13;96489.94;;;19.13
19102;BMP280;9683;49.028;12.064;2023-08-30T12:40:43;96483.94;;;19.16
19102;BMP280;9683;49.028;12.064;2023-08-30T12:43:10;96498.53;;;19.29
19102;BMP280;9683;49.028;12.064;2023-08-30T12:45:38;96490.38;;;19.34
19102;BMP280;9683;49.028;12.064;2023-08-30T12:48:05;96498.16;;;19.35
19102;BMP280;9683;49.028;12.064;2023-08-30T12:50:33;96491.38;;;19.38
19102;BMP280;9683;49.028;12.064;2023-08-30T12:53:00;96484.88;;;19.39
19102;BMP280;9683;49.028;12.064;2023-08-30T12:55:28;96482.94;;;19.44
19102;BMP280;9683;49.028;12.064;2023-08-30T12:57:54;96490.91;;;19.49
19102;BMP280;9683;49.028;12.064;2023-08-30T13:00:21;96481.63;;;19.55
19102;BMP280;9683;49.028;12.064;2023-08-30T13:02:47;96487.72;;;19.61
19102;BMP280;9683;49.028;12.064;2023-08-30T13:05:14;96474.63;;;19.68
19102;BMP280;9683;49.028;12.064;2023-08-30T13:07:42;96481.72;;;19.78
19102;BMP280;9683;49.028;12.064;2023-08-30T13:10:09;96483.53;;;19.82
19102;BMP280;9683;49.028;12.064;2023-08-30T13:12:37;96477.19;;;19.87
19102;BMP280;9683;49.028;12.064;2023-08-30T13:15:09;96477.41;;;19.90
19102;BMP280;9683;49.028;12.064;2023-08-30T13:17:35;96472.72;;;19.82
19102;BMP280;9683;49.028;12.064;2023-08-30T13:20:02;96472.31;;;19.89
19102;BMP280;9683;49.028;12.064;2023-08-30T13:22:30;96467.31;;;19.82
19102;BMP280;9683;49.028;12.064;2023-08-30T13:24:58;96477.59;;;19.94
19102;BMP280;9683;49.028;12.064;2023-08-30T13:27:25;96472.69;;;19.96
19102;BMP280;9683;49.028;12.064;2023-08-30T13:29:51;96470.78;;;19.96
19102;BMP280;9683;49.028;12.064;2023-08-30T13:32:18;96477.69;;;20.02
19102;BMP280;9683;49.028;12.064;2023-08-30T13:34:44;96464.09;;;20.07
19102;BMP280;9683;49.028;12.064;2023-08-30T13:37:12;96463.28;;;20.07
19102;BMP280;9683;49.028;12.064;2023-08-30T13:39:39;96471.88;;;20.09
19102;BMP280;9683;49.028;12.064;2023-08-30T13:42:07;96471.75;;;20.14
19102;BMP280;9683;49.028;12.064;2023-08-30T13:44:34;96473.66;;;20.13
19102;BMP280;9683;49.028;12.064;2023-08-30T13:47:02;96475.75;;;20.17
19102;BMP280;9683;49.028;12.064;2023-08-30T13:49:30;96474.94;;;20.16
19102;BMP280;9683;49.028;12.064;2023-08-30T13:51:57;96457.88;;;20.07
19102;BMP280;9683;49.028;12.064;2023-08-30T13:54:24;96478.44;;;20.17
19102;BMP280;9683;49.028;12.064;2023-08-30T13:56:50;96479.25;;;20.17
19102;BMP280;9683;49.028;12.064;2023-08-30T13:59:18;96484.97;;;20.16
19102;BMP280;9683;49.028;12.064;2023-08-30T14:01:45;96479.16;;;20.08
19102;BMP280;9683;49.028;12.064;2023-08-30T14:04:11;96486.47;;;20.08
19102;BMP280;9683;49.028;12.064;2023-08-30T14:06:38;96485.09;;;19.97
19102;BMP280;9683;49.028;12.064;2023-08-30T14:09:05;96482.81;;;19.90
19102;BMP280;9683;49.028;12.064;2023-08-30T14:11:33;96490.03;;;19.81
19102;BMP280;9683;49.028;12.064;2023-08-30T14:14:01;96488.03;;;19.73
19102;BMP280;9683;49.028;12.064;2023-08-30T14:16:29;96480.41;;;19.61
19102;BMP280;9683;49.028;12.064;2023-08-30T14:18:55;96485.59;;;19.58